sensor_id;sensor_type;location;lat;lon;timestamp;pressure;altitude;pressure_sealevel;temperature;humidity
61528;BME280;47395;42.032;-8.634;2023-06-19T00:00:36;100451.63;;;20.11;81.26
61528;BME280;47395;42.032;-8.634;2023-06-19T00:02:41;100450.09;;;20.08;81.56
61528;BME280;47395;42.032;-8.634;2023-06-19T00:04:42;100452.19;;;20.05;81.75
61528;BME280;47395;42.032;-8.634;2023-06-19T00:06:43;100458.13;;;19.99;81.81
61528;BME280;47395;42.032;-8.634;2023-06-19T00:08:44;100448.28;;;19.99;81.80
61528;BME280;47395;42.032;-8.634;2023-06-19T00:10:45;100453.34;;;19.92;81.48
61528;BME280;47395;42.032;-8.634;2023-06-19T00:12:46;100449.53;;;19.95;81.25
61528;BME280;47395;42.032;-8.634;2023-06-19T00:14:46;100448.00;;;19.92;81.27
61528;BME280;47395;42.032;-8.634;2023-06-19T00:16:47;100449.09;;;19.90;81.24
61528;BME280;47395;42.032;-8.634;2023-06-19T00:18:48;100446.88;;;19.95;81.40
61528;BME280;47395;42.032;-8.634;2023-06-19T00:20:49;100449.25;;;19.98;81.02
61528;BME280;47395;42.032;-8.634;2023-06-19T00:22:50;100447.69;;;19.95;80.89
61528;BME280;47395;42.032;-8.634;2023-06-19T00:24:52;100453.91;;;19.86;81.31
61528;BME280;47395;42.032;-8.634;2023-06-19T00:26:53;100449.69;;;19.93;81.50
61528;BME280;47395;42.032;-8.634;2023-06-19T00:28:53;100457.41;;;19.96;81.15
61528;BME280;47395;42.032;-8.634;2023-06-19T00:30:56;100450.34;;;19.95;80.82
61528;BME280;47395;42.032;-8.634;2023-06-19T00:32:57;100455.03;;;19.93;80.99
61528;BME280;47395;42.032;-8.634;2023-06-19T00:35:04;100454.47;;;20.00;81.37
61528;BME280;47395;42.032;-8.634;2023-06-19T00:37:05;100455.72;;;19.95;81.05
61528;BME280;47395;42.032;-8.634;2023-06-19T00:39:07;100456.84;;;19.93;81.63
61528;BME280;47395;42.032;-8.634;2023-06-19T00:41:08;100452.34;;;19.93;81.48
61528;BME280;47395;42.032;-8.634;2023-06-19T00:43:09;100448.97;;;20.01;81.63
61528;BME280;47395;42.032;-8.634;2023-06-19T00:45:10;100449.25;;;19.98;81.66
61528;BME280;47395;42.032;-8.634;2023-06-19T00:47:12;100444.50;;;20.02;81.19
61528;BME280;47395;42.032;-8.634;2023-06-19T00:49:14;100440.69;;;20.04;80.91
61528;BME280;47395;42.032;-8.634;2023-06-19T00:51:15;100436.47;;;20.02;81.22
61528;BME280;47395;42.032;-8.634;2023-06-19T00:53:17;100447.69;;;19.95;81.80
61528;BME280;47395;42.032;-8.634;2023-06-19T00:55:19;100449.53;;;19.95;81.61
61528;BME280;47395;42.032;-8.634;2023-06-19T00:57:21;100456.16;;;20.01;81.47
61528;BME280;47395;42.032;-8.634;2023-06-19T00:59:22;100447.44;;;19.99;81.87
61528;BME280;47395;42.032;-8.634;2023-06-19T01:01:23;100436.03;;;19.96;82.03
61528;BME280;47395;42.032;-8.634;2023-06-19T01:03:24;100439.53;;;20.07;81.67
61528;BME280;47395;42.032;-8.634;2023-06-19T01:05:27;100434.75;;;20.11;81.56
61528;BME280;47395;42.032;-8.634;2023-06-19T01:10:02;100437.25;;;20.22;80.73
61528;BME280;47395;42.032;-8.634;2023-06-19T01:12:20;100424.03;;;20.20;80.67
61528;BME280;47395;42.032;-8.634;2023-06-19T01:14:28;100422.47;;;20.28;80.26
61528;BME280;47395;42.032;-8.634;2023-06-19T01:16:31;100421.47;;;20.29;80.32
61528;BME280;47395;42.032;-8.634;2023-06-19T01:18:33;100424.53;;;20.34;80.58
61528;BME280;47395;42.032;-8.634;2023-06-19T01:20:35;100417.03;;;20.38;80.07
61528;BME280;47395;42.032;-8.634;2023-06-19T01:22:36;100421.25;;;20.40;79.65
61528;BME280;47395;42.032;-8.634;2023-06-19T01:24:39;100414.94;;;20.41;79.46
61528;BME280;47395;42.032;-8.634;2023-06-19T01:26:41;100409.03;;;20.38;79.68
61528;BME280;47395;42.032;-8.634;2023-06-19T01:28:45;100414.13;;;20.31;80.50
61528;BME280;47395;42.032;-8.634;2023-06-19T01:30:46;100412.59;;;20.28;81.20
61528;BME280;47395;42.032;-8.634;2023-06-19T01:32:58;100403.41;;;20.31;80.90
61528;BME280;47395;42.032;-8.634;2023-06-19T01:35:01;100399.59;;;20.33;81.24
61528;BME280;47395;42.032;-8.634;2023-06-19T01:37:04;100394.09;;;20.35;81.28
61528;BME280;47395;42.032;-8.634;2023-06-19T01:39:06;100397.50;;;20.37;80.97
61528;BME280;47395;42.032;-8.634;2023-06-19T01:41:08;100398.63;;;20.34;81.43
61528;BME280;47395;42.032;-8.634;2023-06-19T01:43:11;100393.44;;;20.33;81.43
61528;BME280;47395;42.032;-8.634;2023-06-19T01:45:12;100384.41;;;20.34;81.28
61528;BME280;47395;42.032;-8.634;2023-06-19T01:47:13;100385.09;;;20.36;81.81
61528;BME280;47395;42.032;-8.634;2023-06-19T01:49:18;100391.97;;;20.39;81.83
61528;BME280;47395;42.032;-8.634;2023-06-19T01:51:20;100389.91;;;20.32;82.20
61528;BME280;47395;42.032;-8.634;2023-06-19T01:53:21;100387.75;;;20.36;82.22
61528;BME280;47395;42.032;-8.634;2023-06-19T01:55:22;100392.97;;;20.38;82.68
61528;BME280;47395;42.032;-8.634;2023-06-19T01:57:23;100397.03;;;20.42;82.65
61528;BME280;47395;42.032;-8.634;2023-06-19T01:59:23;100396.34;;;20.40;83.45
61528;BME280;47395;42.032;-8.634;2023-06-19T02:01:25;100389.16;;;20.40;83.45
61528;BME280;47395;42.032;-8.634;2023-06-19T02:03:26;100392.69;;;20.41;83.96
61528;BME280;47395;42.032;-8.634;2023-06-19T02:05:27;100396.09;;;20.33;83.54
61528;BME280;47395;42.032;-8.634;2023-06-19T02:07:28;100394.41;;;20.32;83.99
61528;BME280;47395;42.032;-8.634;2023-06-19T02:09:29;100396.94;;;20.33;83.95
61528;BME280;47395;42.032;-8.634;2023-06-19T02:11:29;100403.81;;;20.36;83.49
61528;BME280;47395;42.032;-8.634;2023-06-19T02:13:30;100397.78;;;20.34;84.01
61528;BME280;47395;42.032;-8.634;2023-06-19T02:15:31;100389.38;;;20.29;83.79
61528;BME280;47395;42.032;-8.634;2023-06-19T02:17:32;100395.25;;;20.32;83.93
61528;BME280;47395;42.032;-8.634;2023-06-19T02:19:33;100398.31;;;20.38;83.11
61528;BME280;47395;42.032;-8.634;2023-06-19T02:21:34;100394.09;;;20.35;83.27
61528;BME280;47395;42.032;-8.634;2023-06-19T02:23:35;100391.72;;;20.32;83.80
61528;BME280;47395;42.032;-8.634;2023-06-19T02:25:36;100385.53;;;20.31;83.91
61528;BME280;47395;42.032;-8.634;2023-06-19T02:27:37;100378.66;;;20.29;84.24
61528;BME280;47395;42.032;-8.634;2023-06-19T02:29:38;100370.50;;;20.30;84.02
61528;BME280;47395;42.032;-8.634;2023-06-19T02:31:39;100377.38;;;20.33;84.29
61528;BME280;47395;42.032;-8.634;2023-06-19T02:33:40;100374.69;;;20.33;84.29
61528;BME280;47395;42.032;-8.634;2023-06-19T02:35:41;100365.97;;;20.31;84.56
61528;BME280;47395;42.032;-8.634;2023-06-19T02:37:43;100362.47;;;20.30;84.08
61528;BME280;47395;42.032;-8.634;2023-06-19T02:39:45;100358.94;;;20.30;84.12
61528;BME280;47395;42.032;-8.634;2023-06-19T02:41:46;100358.53;;;20.25;84.05
61528;BME280;47395;42.032;-8.634;2023-06-19T02:43:47;100354.34;;;20.22;84.14
61528;BME280;47395;42.032;-8.634;2023-06-19T02:45:48;100356.31;;;20.20;84.73
61528;BME280;47395;42.032;-8.634;2023-06-19T02:47:49;100353.69;;;20.10;84.68
61528;BME280;47395;42.032;-8.634;2023-06-19T02:49:52;100352.94;;;20.18;84.35
61528;BME280;47395;42.032;-8.634;2023-06-19T02:51:53;100337.72;;;20.18;84.33
61528;BME280;47395;42.032;-8.634;2023-06-19T02:53:55;100335.63;;;20.22;84.08
61528;BME280;47395;42.032;-8.634;2023-06-19T02:55:56;100336.44;;;20.22;84.27
61528;BME280;47395;42.032;-8.634;2023-06-19T02:57:57;100328.03;;;20.17;84.23
61528;BME280;47395;42.032;-8.634;2023-06-19T02:59:58;100331.69;;;20.16;84.44
61528;BME280;47395;42.032;-8.634;2023-06-19T03:02:01;100328.03;;;20.17;84.27
61528;BME280;47395;42.032;-8.634;2023-06-19T03:04:01;100332.28;;;20.10;84.31
61528;BME280;47395;42.032;-8.634;2023-06-19T03:06:05;100313.81;;;20.17;84.27
61528;BME280;47395;42.032;-8.634;2023-06-19T03:08:07;100304.34;;;20.22;84.19
61528;BME280;47395;42.032;-8.634;2023-06-19T03:10:08;100297.03;;;20.25;84.02
61528;BME280;47395;42.032;-8.634;2023-06-19T03:12:09;100295.72;;;20.29;83.98
61528;BME280;47395;42.032;-8.634;2023-06-19T03:14:11;100296.66;;;20.38;83.41
61528;BME280;47395;42.032;-8.634;2023-06-19T03:16:12;100285.28;;;20.35;83.14
61528;BME280;47395;42.032;-8.634;2023-06-19T03:18:15;100283.75;;;20.33;83.60
61528;BME280;47395;42.032;-8.634;2023-06-19T03:20:16;100281.56;;;20.18;84.16
61528;BME280;47395;42.032;-8.634;2023-06-19T03:22:25;100291.94;;;20.03;84.96
61528;BME280;47395;42.032;-8.634;2023-06-19T03:24:26;100292.47;;;19.97;85.08
61528;BME280;47395;42.032;-8.634;2023-06-19T03:26:30;100292.59;;;20.05;84.79
61528;BME280;47395;42.032;-8.634;2023-06-19T03:28:34;100283.72;;;20.05;85.00
61528;BME280;47395;42.032;-8.634;2023-06-19T03:30:36;100283.72;;;20.05;85.08
61528;BME280;47395;42.032;-8.634;2023-06-19T03:32:37;100286.22;;;20.16;84.69
61528;BME280;47395;42.032;-8.634;2023-06-19T03:34:39;100288.28;;;20.22;84.21
61528;BME280;47395;42.032;-8.634;2023-06-19T03:36:42;100290.00;;;20.24;84.50
61528;BME280;47395;42.032;-8.634;2023-06-19T03:38:45;100290.69;;;20.26;84.11
61528;BME280;47395;42.032;-8.634;2023-06-19T03:40:48;100293.34;;;20.26;84.08
61528;BME280;47395;42.032;-8.634;2023-06-19T03:42:50;100299.22;;;20.29;84.05
61528;BME280;47395;42.032;-8.634;2023-06-19T03:44:51;100292.06;;;20.30;84.17
61528;BME280;47395;42.032;-8.634;2023-06-19T03:46:52;100275.16;;;20.29;84.06
61528;BME280;47395;42.032;-8.634;2023-06-19T03:48:53;100279.59;;;20.20;84.41
61528;BME280;47395;42.032;-8.634;2023-06-19T03:50:54;100282.69;;;20.16;84.60
61528;BME280;47395;42.032;-8.634;2023-06-19T03:52:55;100283.25;;;20.19;84.30
61528;BME280;47395;42.032;-8.634;2023-06-19T03:54:56;100285.63;;;20.22;84.48
61528;BME280;47395;42.032;-8.634;2023-06-19T03:56:57;100280.13;;;20.24;84.67
61528;BME280;47395;42.032;-8.634;2023-06-19T03:58:58;100292.50;;;20.25;84.88
61528;BME280;47395;42.032;-8.634;2023-06-19T04:05:29;100285.47;;;20.24;85.15
61528;BME280;47395;42.032;-8.634;2023-06-19T04:07:30;100284.47;;;20.25;85.00
61528;BME280;47395;42.032;-8.634;2023-06-19T04:09:33;100276.53;;;20.15;85.38
61528;BME280;47395;42.032;-8.634;2023-06-19T04:11:35;100275.25;;;20.19;85.51
61528;BME280;47395;42.032;-8.634;2023-06-19T04:13:39;100266.88;;;20.22;85.43
61528;BME280;47395;42.032;-8.634;2023-06-19T04:15:43;100252.84;;;20.20;85.71
61528;BME280;47395;42.032;-8.634;2023-06-19T04:17:44;100266.59;;;20.26;85.82
61528;BME280;47395;42.032;-8.634;2023-06-19T04:19:45;100262.69;;;20.20;85.80
61528;BME280;47395;42.032;-8.634;2023-06-19T04:21:46;100263.69;;;20.19;85.90
61528;BME280;47395;42.032;-8.634;2023-06-19T04:23:47;100275.25;;;20.19;85.94
61528;BME280;47395;42.032;-8.634;2023-06-19T04:25:48;100278.72;;;20.20;85.66
61528;BME280;47395;42.032;-8.634;2023-06-19T04:27:49;100279.06;;;20.17;85.83
61528;BME280;47395;42.032;-8.634;2023-06-19T04:29:50;100291.44;;;20.18;85.65
61528;BME280;47395;42.032;-8.634;2023-06-19T04:31:53;100286.50;;;20.13;86.26
61528;BME280;47395;42.032;-8.634;2023-06-19T04:33:54;100281.31;;;20.12;86.74
61528;BME280;47395;42.032;-8.634;2023-06-19T04:35:57;100285.28;;;20.07;86.76
61528;BME280;47395;42.032;-8.634;2023-06-19T04:38:03;100283.59;;;20.06;87.10
61528;BME280;47395;42.032;-8.634;2023-06-19T04:40:05;100284.44;;;20.07;87.21
61528;BME280;47395;42.032;-8.634;2023-06-19T04:42:07;100287.69;;;20.01;87.48
61528;BME280;47395;42.032;-8.634;2023-06-19T04:44:11;100307.22;;;20.11;87.37
61528;BME280;47395;42.032;-8.634;2023-06-19T04:46:14;100294.16;;;20.08;87.18
61528;BME280;47395;42.032;-8.634;2023-06-19T04:48:20;100297.09;;;20.05;87.49
61528;BME280;47395;42.032;-8.634;2023-06-19T04:50:25;100294.75;;;20.02;87.36
61528;BME280;47395;42.032;-8.634;2023-06-19T04:52:26;100291.81;;;19.85;87.93
61528;BME280;47395;42.032;-8.634;2023-06-19T04:54:26;100316.63;;;19.77;88.02
61528;BME280;47395;42.032;-8.634;2023-06-19T04:56:27;100315.50;;;19.70;88.33
61528;BME280;47395;42.032;-8.634;2023-06-19T04:58:29;100301.34;;;19.60;88.68
61528;BME280;47395;42.032;-8.634;2023-06-19T05:00:29;100291.47;;;19.60;88.96
61528;BME280;47395;42.032;-8.634;2023-06-19T05:02:31;100280.53;;;19.53;89.06
61528;BME280;47395;42.032;-8.634;2023-06-19T05:04:31;100286.47;;;19.47;89.11
61528;BME280;47395;42.032;-8.634;2023-06-19T05:06:33;100284.34;;;19.41;90.04
61528;BME280;47395;42.032;-8.634;2023-06-19T05:08:34;100309.66;;;19.47;90.45
61528;BME280;47395;42.032;-8.634;2023-06-19T05:10:35;100290.41;;;19.43;90.66
61528;BME280;47395;42.032;-8.634;2023-06-19T05:12:36;100303.88;;;19.51;90.71
61528;BME280;47395;42.032;-8.634;2023-06-19T05:14:38;100310.88;;;19.62;90.52
61528;BME280;47395;42.032;-8.634;2023-06-19T05:16:39;100274.34;;;19.53;90.31
61528;BME280;47395;42.032;-8.634;2023-06-19T05:18:40;100277.84;;;19.63;90.35
61528;BME280;47395;42.032;-8.634;2023-06-19T05:20:41;100289.31;;;19.74;90.19
61528;BME280;47395;42.032;-8.634;2023-06-19T05:22:42;100296.63;;;19.81;90.21
61528;BME280;47395;42.032;-8.634;2023-06-19T05:24:44;100280.34;;;19.75;89.79
61528;BME280;47395;42.032;-8.634;2023-06-19T05:26:45;100282.41;;;19.81;89.83
61528;BME280;47395;42.032;-8.634;2023-06-19T05:28:49;100258.13;;;19.64;89.50
61528;BME280;47395;42.032;-8.634;2023-06-19T05:31:01;100249.13;;;19.65;89.60
61528;BME280;47395;42.032;-8.634;2023-06-19T05:33:01;100278.63;;;19.74;89.83
61528;BME280;47395;42.032;-8.634;2023-06-19T05:35:02;100287.06;;;19.79;89.70
61528;BME280;47395;42.032;-8.634;2023-06-19T05:37:03;100279.75;;;19.81;89.60
61528;BME280;47395;42.032;-8.634;2023-06-19T05:39:04;100270.03;;;19.80;89.05
61528;BME280;47395;42.032;-8.634;2023-06-19T05:41:05;100276.78;;;19.84;88.92
61528;BME280;47395;42.032;-8.634;2023-06-19T05:43:09;100273.78;;;19.87;89.00
61528;BME280;47395;42.032;-8.634;2023-06-19T05:45:10;100279.56;;;19.92;89.05
61528;BME280;47395;42.032;-8.634;2023-06-19T05:47:11;100295.03;;;19.99;88.87
61528;BME280;47395;42.032;-8.634;2023-06-19T05:49:12;100291.38;;;20.00;88.78
61528;BME280;47395;42.032;-8.634;2023-06-19T05:51:14;100275.31;;;19.90;88.40
61528;BME280;47395;42.032;-8.634;2023-06-19T05:53:15;100282.34;;;20.01;88.41
61528;BME280;47395;42.032;-8.634;2023-06-19T05:55:16;100263.06;;;19.97;88.85
61528;BME280;47395;42.032;-8.634;2023-06-19T05:57:16;100269.69;;;20.03;88.32
61528;BME280;47395;42.032;-8.634;2023-06-19T05:59:21;100250.44;;;19.89;88.18
61528;BME280;47395;42.032;-8.634;2023-06-19T06:01:22;100261.13;;;19.99;88.76
61528;BME280;47395;42.032;-8.634;2023-06-19T06:03:26;100250.53;;;19.98;88.79
61528;BME280;47395;42.032;-8.634;2023-06-19T06:05:28;100237.59;;;19.93;88.33
61528;BME280;47395;42.032;-8.634;2023-06-19T06:07:32;100234.94;;;19.93;88.61
61528;BME280;47395;42.032;-8.634;2023-06-19T06:09:33;100228.78;;;19.92;88.67
61528;BME280;47395;42.032;-8.634;2023-06-19T06:11:34;100236.06;;;20.00;88.61
61528;BME280;47395;42.032;-8.634;2023-06-19T06:13:35;100224.25;;;19.93;88.71
61528;BME280;47395;42.032;-8.634;2023-06-19T06:15:36;100228.78;;;19.92;88.56
61528;BME280;47395;42.032;-8.634;2023-06-19T06:17:37;100240.56;;;19.90;88.72
61528;BME280;47395;42.032;-8.634;2023-06-19T06:19:38;100236.81;;;19.82;88.34
61528;BME280;47395;42.032;-8.634;2023-06-19T06:21:39;100232.16;;;19.85;88.62
61528;BME280;47395;42.032;-8.634;2023-06-19T06:23:41;100243.56;;;19.87;88.18
61528;BME280;47395;42.032;-8.634;2023-06-19T06:25:42;100231.34;;;19.84;88.22
61528;BME280;47395;42.032;-8.634;2023-06-19T06:27:43;100247.88;;;19.98;88.09
61528;BME280;47395;42.032;-8.634;2023-06-19T06:29:44;100251.81;;;20.03;87.27
61528;BME280;47395;42.032;-8.634;2023-06-19T06:31:46;100258.25;;;20.11;87.08
61528;BME280;47395;42.032;-8.634;2023-06-19T06:33:50;100246.31;;;20.05;86.73
61528;BME280;47395;42.032;-8.634;2023-06-19T06:35:51;100231.41;;;20.02;86.84
61528;BME280;47395;42.032;-8.634;2023-06-19T06:37:52;100236.84;;;20.11;86.87
61528;BME280;47395;42.032;-8.634;2023-06-19T06:39:53;100239.22;;;20.14;86.33
61528;BME280;47395;42.032;-8.634;2023-06-19T06:41:56;100241.53;;;20.27;86.17
61528;BME280;47395;42.032;-8.634;2023-06-19T06:43:57;100243.38;;;20.26;85.99
61528;BME280;47395;42.032;-8.634;2023-06-19T06:45:58;100238.56;;;20.30;85.96
61528;BME280;47395;42.032;-8.634;2023-06-19T06:48:02;100230.22;;;20.15;86.16
61528;BME280;47395;42.032;-8.634;2023-06-19T06:50:07;100226.63;;;20.24;86.54
61528;BME280;47395;42.032;-8.634;2023-06-19T06:52:08;100232.69;;;20.44;86.42
61528;BME280;47395;42.032;-8.634;2023-06-19T06:54:09;100240.19;;;20.59;85.93
61528;BME280;47395;42.032;-8.634;2023-06-19T06:56:10;100238.91;;;20.63;85.44
61528;BME280;47395;42.032;-8.634;2023-06-19T06:58:14;100231.09;;;20.70;84.98
61528;BME280;47395;42.032;-8.634;2023-06-19T07:00:15;100241.69;;;20.80;84.81
61528;BME280;47395;42.032;-8.634;2023-06-19T07:02:16;100238.81;;;20.91;83.99
61528;BME280;47395;42.032;-8.634;2023-06-19T07:04:17;100259.69;;;21.06;83.66
61528;BME280;47395;42.032;-8.634;2023-06-19T07:08:23;100272.69;;;21.45;82.45
61528;BME280;47395;42.032;-8.634;2023-06-19T07:10:31;100265.66;;;21.44;82.13
61528;BME280;47395;42.032;-8.634;2023-06-19T07:12:32;100285.94;;;21.47;81.50
61528;BME280;47395;42.032;-8.634;2023-06-19T07:14:41;100266.88;;;21.58;80.69
61528;BME280;47395;42.032;-8.634;2023-06-19T07:16:48;100289.34;;;21.84;79.82
61528;BME280;47395;42.032;-8.634;2023-06-19T07:18:51;100268.28;;;21.97;79.48
61528;BME280;47395;42.032;-8.634;2023-06-19T07:20:53;100268.84;;;22.09;78.64
61528;BME280;47395;42.032;-8.634;2023-06-19T07:22:56;100268.34;;;22.22;77.96
61528;BME280;47395;42.032;-8.634;2023-06-19T07:25:03;100263.16;;;22.12;77.79
61528;BME280;47395;42.032;-8.634;2023-06-19T07:27:08;100289.88;;;22.39;77.30
61528;BME280;47395;42.032;-8.634;2023-06-19T07:29:15;100288.22;;;22.46;76.83
61528;BME280;47395;42.032;-8.634;2023-06-19T07:31:23;100273.44;;;22.34;77.12
61528;BME280;47395;42.032;-8.634;2023-06-19T07:33:26;100303.72;;;22.09;76.64
61528;BME280;47395;42.032;-8.634;2023-06-19T07:35:33;100274.72;;;22.13;77.33
61528;BME280;47395;42.032;-8.634;2023-06-19T07:39:41;100281.50;;;21.90;77.93
61528;BME280;47395;42.032;-8.634;2023-06-19T07:41:46;100292.53;;;21.87;78.56
61528;BME280;47395;42.032;-8.634;2023-06-19T07:43:49;100307.97;;;21.85;78.08
61528;BME280;47395;42.032;-8.634;2023-06-19T07:45:53;100293.59;;;21.68;78.94
61528;BME280;47395;42.032;-8.634;2023-06-19T07:47:55;100293.81;;;21.75;79.23
61528;BME280;47395;42.032;-8.634;2023-06-19T07:50:01;100289.31;;;21.75;79.35
61528;BME280;47395;42.032;-8.634;2023-06-19T07:52:05;100299.19;;;21.75;79.37
61528;BME280;47395;42.032;-8.634;2023-06-19T07:54:06;100296.25;;;21.68;79.59
61528;BME280;47395;42.032;-8.634;2023-06-19T07:56:07;100302.88;;;21.74;79.89
61528;BME280;47395;42.032;-8.634;2023-06-19T07:58:14;100299.31;;;21.47;79.72
61528;BME280;47395;42.032;-8.634;2023-06-19T08:00:15;100289.34;;;21.31;80.05
61528;BME280;47395;42.032;-8.634;2023-06-19T08:02:17;100288.09;;;21.43;80.76
61528;BME280;47395;42.032;-8.634;2023-06-19T08:04:18;100289.63;;;21.46;80.20
61528;BME280;47395;42.032;-8.634;2023-06-19T08:06:19;100295.94;;;21.45;80.62
61528;BME280;47395;42.032;-8.634;2023-06-19T08:08:20;100305.91;;;21.52;80.78
61528;BME280;47395;42.032;-8.634;2023-06-19T08:10:21;100302.72;;;21.57;80.84
61528;BME280;47395;42.032;-8.634;2023-06-19T08:12:21;100289.34;;;21.57;80.85
61528;BME280;47395;42.032;-8.634;2023-06-19T08:14:22;100292.88;;;21.58;80.83
61528;BME280;47395;42.032;-8.634;2023-06-19T08:16:25;100295.44;;;21.68;79.82
61528;BME280;47395;42.032;-8.634;2023-06-19T08:18:26;100292.66;;;21.51;80.37
61528;BME280;47395;42.032;-8.634;2023-06-19T08:20:27;100298.53;;;21.55;80.71
61528;BME280;47395;42.032;-8.634;2023-06-19T08:22:28;100304.31;;;21.68;80.86
61528;BME280;47395;42.032;-8.634;2023-06-19T08:24:29;100311.75;;;21.74;80.58
61528;BME280;47395;42.032;-8.634;2023-06-19T08:26:30;100293.59;;;21.68;80.53
61528;BME280;47395;42.032;-8.634;2023-06-19T08:28:31;100285.69;;;21.67;80.32
61528;BME280;47395;42.032;-8.634;2023-06-19T08:30:32;100281.66;;;21.62;80.13
61528;BME280;47395;42.032;-8.634;2023-06-19T08:32:36;100286.50;;;21.59;80.40
61528;BME280;47395;42.032;-8.634;2023-06-19T08:34:38;100306.31;;;21.66;79.59
61528;BME280;47395;42.032;-8.634;2023-06-19T08:36:39;100298.53;;;21.55;79.38
61528;BME280;47395;42.032;-8.634;2023-06-19T08:38:40;100317.38;;;21.45;78.86
61528;BME280;47395;42.032;-8.634;2023-06-19T08:40:44;100298.41;;;21.38;79.96
61528;BME280;47395;42.032;-8.634;2023-06-19T08:42:45;100303.25;;;21.34;80.23
61528;BME280;47395;42.032;-8.634;2023-06-19T08:44:46;100309.13;;;21.38;80.38
61528;BME280;47395;42.032;-8.634;2023-06-19T08:46:47;100301.53;;;21.25;81.29
61528;BME280;47395;42.032;-8.634;2023-06-19T08:48:50;100307.25;;;21.30;81.73
61528;BME280;47395;42.032;-8.634;2023-06-19T08:50:51;100293.50;;;21.07;81.71
61528;BME280;47395;42.032;-8.634;2023-06-19T08:52:52;100304.75;;;21.10;81.99
61528;BME280;47395;42.032;-8.634;2023-06-19T08:54:53;100310.50;;;21.16;82.24
61528;BME280;47395;42.032;-8.634;2023-06-19T08:56:54;100296.66;;;21.02;81.83
61528;BME280;47395;42.032;-8.634;2023-06-19T08:58:55;100300.59;;;21.16;82.12
61528;BME280;47395;42.032;-8.634;2023-06-19T09:00:59;100295.31;;;21.24;82.31
61528;BME280;47395;42.032;-8.634;2023-06-19T09:03:02;100293.97;;;21.47;81.11
61528;BME280;47395;42.032;-8.634;2023-06-19T09:05:11;100316.84;;;21.86;80.58
61528;BME280;47395;42.032;-8.634;2023-06-19T09:07:13;100299.78;;;21.95;79.29
61528;BME280;47395;42.032;-8.634;2023-06-19T09:09:20;100317.97;;;22.10;77.88
61528;BME280;47395;42.032;-8.634;2023-06-19T09:11:25;100298.38;;;22.17;77.18
61528;BME280;47395;42.032;-8.634;2023-06-19T09:13:28;100301.25;;;22.24;76.60
61528;BME280;47395;42.032;-8.634;2023-06-19T09:15:32;100314.56;;;22.51;75.43
61528;BME280;47395;42.032;-8.634;2023-06-19T09:17:36;100321.00;;;22.58;75.06
61528;BME280;47395;42.032;-8.634;2023-06-19T09:19:51;100304.91;;;22.15;73.47
61528;BME280;47395;42.032;-8.634;2023-06-19T09:22:06;100304.78;;;22.33;74.05
61528;BME280;47395;42.032;-8.634;2023-06-19T09:24:08;100314.72;;;22.49;72.58
61528;BME280;47395;42.032;-8.634;2023-06-19T09:26:09;100319.78;;;22.52;73.24
61528;BME280;47395;42.032;-8.634;2023-06-19T09:28:17;100329.91;;;22.67;74.10
61528;BME280;47395;42.032;-8.634;2023-06-19T09:30:18;100318.66;;;22.63;73.32
61528;BME280;47395;42.032;-8.634;2023-06-19T09:32:27;100311.28;;;22.65;73.13
61528;BME280;47395;42.032;-8.634;2023-06-19T09:34:30;100329.75;;;22.77;72.93
61528;BME280;47395;42.032;-8.634;2023-06-19T09:36:32;100321.56;;;22.95;73.33
61528;BME280;47395;42.032;-8.634;2023-06-19T09:38:38;100306.59;;;23.09;72.58
61528;BME280;47395;42.032;-8.634;2023-06-19T09:40:46;100319.56;;;23.22;71.92
61528;BME280;47395;42.032;-8.634;2023-06-19T09:42:52;100319.88;;;23.27;72.18
61528;BME280;47395;42.032;-8.634;2023-06-19T09:45:03;100328.63;;;23.29;71.61
61528;BME280;47395;42.032;-8.634;2023-06-19T09:47:12;100333.00;;;23.30;71.69
61528;BME280;47395;42.032;-8.634;2023-06-19T09:49:18;100337.03;;;23.18;71.36
61528;BME280;47395;42.032;-8.634;2023-06-19T09:51:23;100323.56;;;22.93;70.55
61528;BME280;47395;42.032;-8.634;2023-06-19T09:53:30;100333.16;;;22.87;70.91
61528;BME280;47395;42.032;-8.634;2023-06-19T09:55:32;100333.50;;;22.41;72.28
61528;BME280;47395;42.032;-8.634;2023-06-19T09:57:34;100328.41;;;22.73;71.80
61528;BME280;47395;42.032;-8.634;2023-06-19T09:59:37;100342.00;;;22.63;73.12
61528;BME280;47395;42.032;-8.634;2023-06-19T10:01:39;100335.28;;;22.24;74.74
61528;BME280;47395;42.032;-8.634;2023-06-19T10:03:40;100326.75;;;21.94;76.26
61528;BME280;47395;42.032;-8.634;2023-06-19T10:05:41;100342.78;;;22.12;75.90
61528;BME280;47395;42.032;-8.634;2023-06-19T10:07:44;100335.34;;;21.97;76.13
61528;BME280;47395;42.032;-8.634;2023-06-19T10:10:04;100361.06;;;21.82;77.44
61528;BME280;47395;42.032;-8.634;2023-06-19T10:12:13;100361.19;;;21.54;79.30
61528;BME280;47395;42.032;-8.634;2023-06-19T10:14:14;100359.47;;;21.08;81.37
61528;BME280;47395;42.032;-8.634;2023-06-19T10:16:22;100353.13;;;21.09;82.63
61528;BME280;47395;42.032;-8.634;2023-06-19T10:18:23;100356.16;;;20.96;82.70
61528;BME280;47395;42.032;-8.634;2023-06-19T10:20:36;100347.81;;;20.53;82.99
61528;BME280;47395;42.032;-8.634;2023-06-19T10:22:51;100346.09;;;20.61;84.62
61528;BME280;47395;42.032;-8.634;2023-06-19T10:24:52;100345.38;;;20.41;85.66
61528;BME280;47395;42.032;-8.634;2023-06-19T10:27:00;100341.69;;;20.14;87.52
61528;BME280;47395;42.032;-8.634;2023-06-19T10:29:06;100335.38;;;20.15;87.25
61528;BME280;47395;42.032;-8.634;2023-06-19T10:31:13;100340.22;;;20.02;87.58
61528;BME280;47395;42.032;-8.634;2023-06-19T10:33:14;100339.00;;;20.14;88.34
61528;BME280;47395;42.032;-8.634;2023-06-19T10:35:17;100333.38;;;20.17;88.97
61528;BME280;47395;42.032;-8.634;2023-06-19T10:37:32;100318.97;;;20.28;88.22
61528;BME280;47395;42.032;-8.634;2023-06-19T10:39:33;100316.81;;;20.32;89.13
61528;BME280;47395;42.032;-8.634;2023-06-19T10:41:34;100312.41;;;20.41;88.36
61528;BME280;47395;42.032;-8.634;2023-06-19T10:43:35;100311.66;;;20.48;87.98